createdAt,value
2023-02-02T00:01:59.457Z,13.80
2023-02-02T00:04:34.951Z,16.77
2023-02-02T00:07:02.979Z,17.15
2023-02-02T00:09:31.445Z,14.57
2023-02-02T00:11:59.463Z,11.55
2023-02-02T00:14:26.563Z,11.13
2023-02-02T00:16:54.474Z,15.70
2023-02-02T00:19:24.691Z,18.45
2023-02-02T00:21:51.172Z,9.02
2023-02-02T00:24:18.247Z,10.02
2023-02-02T00:26:47.179Z,13.48
2023-02-02T00:29:19.875Z,10.48
2023-02-02T00:31:47.619Z,7.22
2023-02-02T00:34:15.231Z,13.02
2023-02-02T00:36:42.864Z,11.85
2023-02-02T00:39:10.711Z,16.92
2023-02-02T00:41:37.111Z,14.23
2023-02-02T00:44:22.496Z,15.30
2023-02-02T00:46:48.932Z,12.85
2023-02-02T00:49:15.372Z,10.02
2023-02-02T00:51:41.807Z,10.60
2023-02-02T00:54:08.337Z,15.20
2023-02-02T00:56:34.972Z,15.90
2023-02-02T00:59:01.504Z,14.07
2023-02-02T01:01:28.594Z,15.05
2023-02-02T01:03:55.233Z,13.40
2023-02-02T01:06:22.964Z,11.38
2023-02-02T01:08:49.430Z,11.65
2023-02-02T01:11:16.787Z,14.15
2023-02-02T01:13:43.807Z,17.13
2023-02-02T01:16:11.149Z,13.20
2023-02-02T01:18:37.751Z,16.83
2023-02-02T01:21:07.101Z,9.68
2023-02-02T01:23:34.945Z,10.25
2023-02-02T01:26:03.871Z,6.80
2023-02-02T01:28:31.861Z,11.50
2023-02-02T01:30:58.779Z,9.88
2023-02-02T01:33:25.595Z,8.65
2023-02-02T01:35:54.307Z,12.45
2023-02-02T01:38:24.380Z,4.05
2023-02-02T01:40:55.567Z,5.13
2023-02-02T01:43:27.764Z,8.48
2023-02-02T01:45:56.165Z,6.40
2023-02-02T01:48:28.280Z,7.88
2023-02-02T01:50:58.033Z,11.10
2023-02-02T01:53:24.812Z,5.18
2023-02-02T01:55:52.492Z,3.33
2023-02-02T01:58:25.876Z,8.73
2023-02-02T02:00:53.688Z,3.10
2023-02-02T02:03:24.126Z,6.07
2023-02-02T02:06:12.888Z,5.05
2023-02-02T02:08:47.312Z,8.60
2023-02-02T02:11:14.506Z,5.03
2023-02-02T02:14:00.117Z,4.40
2023-02-02T02:16:48.581Z,7.22
2023-02-02T02:20:01.421Z,2.47
2023-02-02T02:23:16.201Z,9.32
2023-02-02T02:26:19.954Z,3.60
2023-02-02T02:28:52.358Z,8.40
2023-02-02T02:31:30.466Z,5.95
2023-02-02T02:34:06.571Z,8.27
2023-02-02T02:36:51.920Z,6.82
2023-02-02T02:39:34.098Z,5.70
2023-02-02T02:42:07.171Z,12.52
2023-02-02T02:44:36.229Z,12.25
2023-02-02T02:47:03.878Z,5.90
2023-02-02T02:49:30.428Z,9.75
2023-02-02T02:51:57.054Z,9.38
2023-02-02T02:54:45.678Z,6.55
2023-02-02T02:57:38.804Z,10.20
2023-02-02T03:00:31.496Z,12.23
2023-02-02T03:03:33.162Z,15.85
2023-02-02T03:06:19.721Z,14.00
2023-02-02T03:08:53.698Z,12.95
2023-02-02T03:11:20.831Z,10.45
2023-02-02T03:13:47.979Z,12.00
2023-02-02T03:16:16.542Z,22.33
2023-02-02T03:18:43.043Z,14.27
2023-02-02T03:21:11.051Z,12.68
2023-02-02T03:23:38.618Z,10.90
2023-02-02T03:26:05.785Z,14.63
2023-02-02T03:28:32.566Z,19.98
2023-02-02T03:31:01.817Z,9.35
2023-02-02T03:33:28.865Z,9.73
2023-02-02T03:35:55.314Z,12.13
2023-02-02T03:38:21.787Z,16.73
2023-02-02T03:40:48.326Z,18.02
2023-02-02T03:43:20.287Z,17.73
2023-02-02T03:45:46.748Z,18.95
2023-02-02T03:48:13.175Z,12.27
2023-02-02T03:50:39.658Z,16.45
2023-02-02T03:53:06.121Z,19.95
2023-02-02T03:55:32.598Z,13.98
2023-02-02T03:57:59.133Z,13.27
2023-02-02T04:00:25.594Z,14.65
2023-02-02T04:02:53.761Z,17.52
2023-02-02T04:05:20.283Z,14.55
2023-02-02T04:07:47.780Z,13.98
2023-02-02T04:10:14.250Z,12.45
2023-02-02T04:12:40.715Z,8.73
2023-02-02T04:15:07.891Z,15.25
2023-02-02T04:17:35.351Z,16.08
2023-02-02T04:20:03.393Z,16.17
2023-02-02T04:22:29.816Z,12.20
2023-02-02T04:24:56.332Z,11.38
2023-02-02T04:27:23.053Z,13.10
2023-02-02T04:29:49.463Z,16.15
2023-02-02T04:32:17.264Z,12.48
2023-02-02T04:34:44.201Z,10.88
2023-02-02T04:37:11.453Z,11.90
2023-02-02T04:39:37.899Z,15.40
2023-02-02T04:42:04.529Z,13.35
2023-02-02T04:44:30.989Z,14.27
2023-02-02T04:46:57.474Z,8.00
2023-02-02T04:49:24.164Z,15.23
2023-02-02T04:51:50.567Z,16.65
2023-02-02T04:54:17.168Z,12.95
2023-02-02T04:56:43.641Z,12.57
2023-02-02T04:59:10.178Z,15.02
2023-02-02T05:01:36.634Z,13.07
2023-02-02T05:04:03.188Z,17.63
2023-02-02T05:06:29.677Z,14.50
2023-02-02T05:08:56.114Z,9.80
2023-02-02T05:11:23.837Z,8.98
2023-02-02T05:13:52.910Z,15.55
2023-02-02T05:18:53.681Z,11.23
2023-02-02T05:21:20.665Z,13.73
2023-02-02T05:23:47.343Z,15.55
2023-02-02T05:26:20.891Z,10.45
2023-02-02T05:28:48.336Z,13.07
2023-02-02T05:31:14.948Z,12.02
2023-02-02T05:33:41.465Z,11.88
2023-02-02T05:36:08.039Z,12.63
2023-02-02T05:38:35.134Z,7.35
2023-02-02T05:41:02.841Z,9.40
2023-02-02T05:43:31.400Z,18.40
2023-02-02T05:45:58.171Z,10.77
2023-02-02T05:48:25.532Z,9.23
2023-02-02T05:51:15.711Z,7.85
2023-02-02T05:53:44.865Z,7.30
2023-02-02T05:58:38.311Z,8.70
2023-02-02T06:01:05.014Z,6.80
2023-02-02T06:03:31.855Z,11.75
2023-02-02T06:05:58.590Z,9.88
2023-02-02T06:08:25.040Z,11.05
2023-02-02T06:10:51.569Z,8.98
2023-02-02T06:13:18.089Z,11.55
2023-02-02T06:15:44.560Z,7.18
2023-02-02T06:18:11.101Z,12.45
2023-02-02T06:20:37.514Z,11.45
2023-02-02T06:23:04.678Z,8.70
2023-02-02T06:25:31.389Z,6.95
2023-02-02T06:27:59.182Z,10.65
2023-02-02T06:30:26.520Z,11.32
2023-02-02T06:32:53.389Z,14.80
2023-02-02T06:35:19.863Z,7.88
2023-02-02T06:37:46.355Z,9.50
2023-02-02T06:40:13.684Z,11.75
2023-02-02T06:42:40.933Z,7.50
2023-02-02T06:45:08.033Z,10.25
2023-02-02T06:47:34.477Z,8.32
2023-02-02T06:50:00.955Z,6.47
2023-02-02T06:52:28.205Z,7.78
2023-02-02T06:54:54.652Z,11.23
2023-02-02T06:57:21.125Z,11.98
2023-02-02T06:59:47.655Z,10.65
2023-02-02T07:02:14.182Z,10.43
2023-02-02T07:04:40.688Z,10.65
2023-02-02T07:07:07.212Z,10.50
2023-02-02T07:09:34.572Z,9.77
2023-02-02T07:12:01.220Z,14.32
2023-02-02T07:14:27.769Z,12.02
2023-02-02T07:16:54.218Z,11.50
2023-02-02T07:19:20.631Z,11.57
2023-02-02T07:21:47.085Z,9.57
2023-02-02T07:24:13.496Z,10.48
2023-02-02T07:26:40.095Z,10.55
2023-02-02T07:29:06.717Z,11.45
2023-02-02T07:31:36.075Z,11.25
2023-02-02T07:34:03.382Z,9.88
2023-02-02T07:36:29.876Z,10.75
2023-02-02T07:38:57.627Z,9.45
2023-02-02T07:41:24.486Z,18.58
2023-02-02T07:43:51.695Z,10.50
2023-02-02T07:46:19.425Z,8.73
2023-02-02T07:48:46.534Z,13.63
2023-02-02T07:51:15.912Z,7.72
2023-02-02T07:53:51.158Z,12.68
2023-02-02T07:56:21.341Z,13.85
2023-02-02T07:58:48.637Z,10.20
2023-02-02T08:01:16.388Z,8.25
2023-02-02T08:03:43.840Z,12.20
2023-02-02T08:06:12.485Z,15.23
2023-02-02T08:08:39.258Z,12.75
2023-02-02T08:11:08.813Z,15.32
2023-02-02T08:13:35.341Z,17.90
2023-02-02T08:16:01.937Z,12.50
2023-02-02T08:18:28.415Z,16.10
2023-02-02T08:20:58.793Z,14.75
2023-02-02T08:23:25.349Z,11.65
2023-02-02T08:25:52.302Z,11.73
2023-02-02T08:28:19.445Z,10.50
2023-02-02T08:30:46.501Z,13.35
2023-02-02T08:33:13.445Z,13.52
2023-02-02T08:35:43.432Z,16.02
2023-02-02T08:38:10.400Z,10.90
2023-02-02T08:40:36.941Z,13.38
2023-02-02T08:43:03.674Z,9.60
2023-02-02T08:46:13.525Z,12.10
2023-02-02T08:48:19.738Z,9.20
2023-02-02T08:50:54.156Z,9.13
2023-02-02T08:53:20.969Z,12.73
2023-02-02T08:55:47.636Z,8.30
2023-02-02T08:58:14.725Z,11.75
2023-02-02T09:00:41.345Z,10.80
2023-02-02T09:03:07.782Z,9.25
2023-02-02T09:05:35.886Z,15.77
2023-02-02T09:08:02.334Z,12.23
2023-02-02T09:10:31.894Z,14.88
2023-02-02T09:12:58.296Z,11.13
2023-02-02T09:15:25.077Z,12.50
2023-02-02T09:17:52.487Z,8.43
2023-02-02T09:20:20.534Z,8.98
2023-02-02T09:22:47.134Z,8.35
2023-02-02T09:25:13.917Z,13.32
2023-02-02T09:27:41.411Z,8.57
2023-02-02T09:30:09.097Z,12.00
2023-02-02T09:32:35.641Z,7.63
2023-02-02T09:35:02.125Z,15.75
2023-02-02T09:37:28.660Z,10.93
2023-02-02T09:39:55.131Z,9.98
2023-02-02T09:42:34.810Z,14.93
2023-02-02T09:45:08.863Z,9.13
2023-02-02T09:47:53.126Z,12.13
2023-02-02T09:50:22.292Z,12.40
2023-02-02T09:55:43.001Z,7.13
2023-02-02T10:00:56.555Z,7.50
2023-02-02T10:04:01.413Z,7.55
2023-02-02T10:06:38.582Z,12.00
2023-02-02T10:09:24.097Z,11.30
2023-02-02T10:12:00.594Z,12.02
2023-02-02T10:14:33.108Z,8.20
2023-02-02T10:17:09.280Z,11.77
2023-02-02T10:19:36.571Z,6.38
2023-02-02T10:22:14.152Z,10.52
2023-02-02T10:24:40.754Z,9.73
2023-02-02T10:27:37.153Z,10.02
2023-02-02T10:30:16.957Z,11.75
2023-02-02T10:33:05.011Z,7.53
2023-02-02T10:35:37.624Z,10.57
2023-02-02T10:38:34.723Z,15.02
2023-02-02T10:41:14.603Z,10.45
2023-02-02T10:43:59.733Z,9.07
2023-02-02T10:46:42.659Z,9.20
2023-02-02T10:49:12.270Z,7.93
2023-02-02T10:51:41.128Z,13.07
2023-02-02T10:54:56.313Z,12.02
2023-02-02T10:57:42.976Z,8.63
2023-02-02T11:00:33.053Z,11.38
2023-02-02T11:03:04.391Z,11.50
2023-02-02T11:05:50.054Z,10.65
2023-02-02T11:08:22.264Z,10.98
2023-02-02T11:10:54.693Z,6.95
2023-02-02T11:13:31.231Z,13.35
2023-02-02T11:16:19.232Z,10.13
2023-02-02T11:18:46.303Z,8.02
2023-02-02T11:21:28.203Z,15.63
2023-02-02T11:24:02.825Z,9.65
2023-02-02T11:27:01.850Z,9.85
2023-02-02T11:29:40.909Z,11.30
2023-02-02T11:32:27.801Z,11.38
2023-02-02T11:35:06.635Z,7.88
2023-02-02T11:37:38.801Z,8.75
2023-02-02T11:40:28.386Z,10.13
2023-02-02T11:42:57.752Z,9.55
2023-02-02T11:45:35.569Z,10.82
2023-02-02T11:48:15.793Z,5.32
2023-02-02T11:50:48.658Z,6.55
2023-02-02T11:53:33.040Z,8.25
2023-02-02T11:56:04.114Z,8.38
2023-02-02T11:58:43.963Z,10.23
2023-02-02T12:01:23.733Z,6.60
2023-02-02T12:03:50.706Z,12.10
2023-02-02T12:06:23.050Z,10.55
2023-02-02T12:08:50.049Z,8.00
2023-02-02T12:11:41.648Z,9.68
2023-02-02T12:14:26.305Z,7.70
2023-02-02T12:17:01.906Z,8.07
2023-02-02T12:19:46.542Z,7.93
2023-02-02T12:22:24.858Z,15.88
2023-02-02T12:25:11.124Z,10.98
2023-02-02T12:27:52.484Z,11.82
2023-02-02T12:31:00.913Z,6.22
2023-02-02T12:33:46.279Z,8.88
2023-02-02T12:36:25.793Z,9.40
2023-02-02T12:39:01.581Z,10.23
2023-02-02T12:41:39.794Z,14.48
2023-02-02T12:44:37.407Z,11.32
2023-02-02T12:47:16.112Z,11.45
2023-02-02T12:49:59.486Z,6.45
2023-02-02T12:52:51.959Z,8.13
2023-02-02T12:55:33.342Z,11.02
2023-02-02T12:58:07.231Z,8.57
2023-02-02T13:00:43.070Z,9.65
2023-02-02T13:04:07.789Z,11.50
2023-02-02T13:07:38.421Z,6.20
2023-02-02T13:10:19.754Z,4.65
2023-02-02T13:13:03.296Z,7.68
2023-02-02T13:15:35.776Z,5.32
2023-02-02T13:18:11.716Z,7.40
2023-02-02T13:20:43.556Z,11.63
2023-02-02T13:23:32.630Z,8.70
2023-02-02T13:26:13.258Z,9.65
2023-02-02T13:28:50.113Z,7.40
2023-02-02T13:31:24.714Z,8.68
2023-02-02T13:34:22.126Z,5.47
2023-02-02T13:36:57.166Z,5.57
2023-02-02T13:39:34.574Z,4.95
2023-02-02T13:42:02.838Z,8.88
2023-02-02T13:44:38.337Z,8.75
2023-02-02T13:47:20.157Z,5.03
2023-02-02T13:50:00.819Z,6.35
2023-02-02T13:52:30.326Z,4.25
2023-02-02T13:55:15.955Z,6.03
2023-02-02T13:57:52.919Z,6.10
2023-02-02T14:00:23.292Z,3.90
2023-02-02T14:02:57.946Z,7.25
2023-02-02T14:05:30.458Z,6.45
2023-02-02T14:08:08.455Z,3.35
2023-02-02T14:10:42.353Z,3.97
2023-02-02T14:13:56.431Z,3.63
2023-02-02T14:16:31.889Z,2.20
2023-02-02T14:19:00.603Z,3.63
2023-02-02T14:21:33.430Z,2.90
2023-02-02T14:23:59.882Z,3.80
2023-02-02T14:26:52.162Z,2.53
2023-02-02T14:29:35.971Z,3.92
2023-02-02T14:32:30.333Z,2.00
2023-02-02T14:34:59.068Z,4.10
2023-02-02T14:37:28.169Z,2.58
2023-02-02T14:43:06.152Z,1.10
2023-02-02T14:45:34.160Z,2.45
2023-02-02T14:48:09.053Z,1.83
2023-02-02T14:50:38.239Z,2.65
2023-02-02T14:53:25.155Z,1.33
2023-02-02T14:56:13.573Z,2.22
2023-02-02T14:58:45.884Z,1.92
2023-02-02T15:01:25.604Z,2.33
2023-02-02T15:04:00.825Z,3.00
2023-02-02T15:06:42.270Z,1.63
2023-02-02T15:09:22.248Z,2.00
2023-02-02T15:12:02.028Z,2.97
2023-02-02T15:14:47.282Z,2.55
2023-02-02T15:17:16.467Z,3.35
2023-02-02T15:19:47.954Z,2.72
2023-02-02T15:22:36.086Z,2.38
2023-02-02T15:25:17.117Z,4.25
2023-02-02T15:27:56.517Z,4.20
2023-02-02T15:30:24.543Z,3.33
2023-02-02T15:32:52.616Z,4.18
2023-02-02T15:35:23.216Z,6.88
2023-02-02T15:37:57.379Z,4.40
2023-02-02T15:40:26.416Z,7.25
2023-02-02T15:43:02.679Z,6.03
2023-02-02T15:45:43.298Z,8.50
2023-02-02T15:48:30.643Z,6.55
2023-02-02T15:51:00.321Z,7.22
2023-02-02T15:53:48.966Z,9.52
2023-02-02T15:56:24.554Z,9.07
2023-02-02T15:58:53.373Z,8.30
2023-02-02T16:01:25.085Z,8.60
2023-02-02T16:04:13.316Z,6.57
2023-02-02T16:06:40.658Z,4.85
2023-02-02T16:09:07.429Z,6.57
2023-02-02T16:11:40.855Z,8.75
2023-02-02T16:14:14.404Z,4.10
2023-02-02T16:16:41.582Z,7.45
2023-02-02T16:19:08.103Z,11.80
2023-02-02T16:21:44.051Z,9.57
2023-02-02T16:24:16.979Z,9.07
2023-02-02T16:26:43.828Z,10.57
2023-02-02T16:29:17.286Z,9.95
2023-02-02T16:31:48.425Z,12.05
2023-02-02T16:34:17.358Z,10.60
2023-02-02T16:36:44.240Z,13.18
2023-02-02T16:39:23.792Z,8.27
2023-02-02T16:41:50.667Z,8.90
2023-02-02T16:44:43.568Z,7.95
2023-02-02T16:47:31.942Z,13.35
2023-02-02T16:50:07.630Z,12.30
2023-02-02T16:52:55.611Z,10.18
2023-02-02T16:55:23.416Z,10.98
2023-02-02T16:57:51.453Z,10.85
2023-02-02T17:00:23.933Z,10.93
2023-02-02T17:02:55.904Z,13.68
2023-02-02T17:05:30.021Z,8.35
2023-02-02T17:08:00.405Z,13.05
2023-02-02T17:10:33.459Z,9.50
2023-02-02T17:13:01.574Z,8.45
2023-02-02T17:15:29.083Z,13.85
2023-02-02T17:17:56.023Z,14.50
2023-02-02T17:20:23.505Z,11.63
2023-02-02T17:23:01.571Z,10.80
2023-02-02T17:25:34.873Z,14.57
2023-02-02T17:28:02.582Z,10.38
2023-02-02T17:30:30.328Z,10.65
2023-02-02T17:32:57.302Z,16.38
2023-02-02T17:35:26.972Z,12.20
2023-02-02T17:37:54.226Z,10.50
2023-02-02T17:40:23.260Z,10.93
2023-02-02T17:42:51.908Z,11.18
2023-02-02T17:45:20.055Z,12.27
2023-02-02T17:47:46.889Z,17.42
2023-02-02T17:50:13.874Z,14.40
2023-02-02T17:52:41.102Z,11.63
2023-02-02T17:55:13.968Z,12.80
2023-02-02T17:57:40.613Z,13.02
2023-02-02T18:00:08.117Z,10.40
2023-02-02T18:02:35.050Z,13.57
2023-02-02T18:05:02.966Z,11.55
2023-02-02T18:07:29.473Z,13.77
2023-02-02T18:09:55.993Z,14.73
2023-02-02T18:12:24.411Z,11.27
2023-02-02T18:14:50.818Z,13.32
2023-02-02T18:17:17.279Z,8.35
2023-02-02T18:19:47.241Z,13.43
2023-02-02T18:22:13.809Z,12.23
2023-02-02T18:24:41.039Z,13.40
2023-02-02T18:27:08.312Z,15.43
2023-02-02T18:29:35.033Z,14.23
2023-02-02T18:32:01.906Z,17.13
2023-02-02T18:34:30.013Z,14.65
2023-02-02T18:36:56.472Z,10.10
2023-02-02T18:39:22.935Z,7.72
2023-02-02T18:41:49.346Z,9.68
2023-02-02T18:44:15.790Z,15.45
2023-02-02T18:46:42.672Z,19.88
2023-02-02T18:49:10.490Z,13.40
2023-02-02T18:51:37.117Z,11.27
2023-02-02T18:54:03.728Z,9.35
2023-02-02T18:56:30.391Z,10.35
2023-02-02T18:58:58.828Z,10.45
2023-02-02T19:01:26.337Z,11.25
2023-02-02T19:03:56.895Z,13.20
2023-02-02T19:06:42.752Z,9.18
2023-02-02T19:09:09.612Z,9.07
2023-02-02T19:11:39.262Z,15.13
2023-02-02T19:14:18.195Z,15.32
2023-02-02T19:16:46.963Z,12.13
2023-02-02T19:19:19.663Z,14.73
2023-02-02T19:21:46.182Z,9.32
2023-02-02T19:24:13.602Z,15.77
2023-02-02T19:26:50.033Z,12.43
2023-02-02T19:29:24.876Z,9.93
2023-02-02T19:32:26.838Z,11.45
2023-02-02T19:35:01.017Z,13.43
2023-02-02T19:37:30.239Z,13.20
2023-02-02T19:40:25.383Z,12.80
2023-02-02T19:42:56.953Z,15.82
2023-02-02T19:45:26.868Z,11.63
2023-02-02T19:47:57.029Z,13.18
2023-02-02T19:50:28.003Z,9.20
2023-02-02T19:52:55.623Z,13.65
2023-02-02T19:55:28.416Z,12.77
2023-02-02T19:58:01.850Z,13.73
2023-02-02T20:00:31.173Z,14.73
2023-02-02T20:03:04.908Z,9.68
2023-02-02T20:05:39.459Z,9.13
2023-02-02T20:08:38.010Z,11.07
2023-02-02T20:11:32.214Z,12.30
2023-02-02T20:14:18.788Z,9.63
2023-02-02T20:19:26.692Z,14.90
2023-02-02T20:21:53.757Z,11.13
2023-02-02T20:24:37.810Z,11.27
2023-02-02T20:27:22.615Z,11.18
2023-02-02T20:29:51.621Z,12.48
2023-02-02T20:32:25.236Z,7.65
2023-02-02T20:34:54.497Z,9.95
2023-02-02T20:37:30.894Z,9.45
2023-02-02T20:40:21.089Z,9.23
2023-02-02T20:42:48.197Z,9.82
2023-02-02T20:45:19.247Z,7.40
2023-02-02T20:47:45.864Z,7.93
2023-02-02T20:50:15.522Z,8.40
2023-02-02T20:52:42.459Z,9.15
2023-02-02T20:55:09.802Z,8.30
2023-02-02T20:57:38.280Z,9.25
2023-02-02T21:00:07.375Z,6.68
2023-02-02T21:05:01.315Z,8.93
2023-02-02T21:07:27.798Z,10.98
2023-02-02T21:09:56.814Z,14.50
2023-02-02T21:14:53.154Z,10.55
2023-02-02T21:17:19.711Z,6.50
2023-02-02T21:19:46.207Z,11.10
2023-02-02T21:22:13.432Z,10.93
2023-02-02T21:24:40.038Z,8.18
2023-02-02T21:27:07.524Z,9.68
2023-02-02T21:29:34.708Z,8.43
2023-02-02T21:32:02.763Z,10.57
2023-02-02T21:34:30.990Z,10.40
2023-02-02T21:36:58.329Z,6.45
2023-02-02T21:39:32.384Z,11.38
2023-02-02T21:42:07.948Z,10.43
2023-02-02T21:44:36.230Z,6.90
2023-02-02T21:47:02.727Z,5.50
2023-02-02T21:49:37.265Z,6.55
2023-02-02T21:52:14.030Z,6.97
2023-02-02T21:54:42.002Z,10.00
2023-02-02T21:57:16.597Z,9.90
2023-02-02T21:59:46.521Z,11.07
2023-02-02T22:02:34.663Z,7.55
2023-02-02T22:05:02.614Z,8.07
2023-02-02T22:07:32.014Z,9.98
2023-02-02T22:09:58.434Z,7.65
2023-02-02T22:12:28.374Z,9.93
2023-02-02T22:15:01.104Z,10.98
2023-02-02T22:17:41.793Z,11.07
2023-02-02T22:22:51.039Z,6.95
2023-02-02T22:25:17.396Z,5.55
2023-02-02T22:27:50.539Z,14.43
2023-02-02T22:30:38.289Z,5.57
2023-02-02T22:33:06.362Z,5.22
2023-02-02T22:35:33.753Z,9.73
2023-02-02T22:38:00.626Z,14.48
2023-02-02T22:40:27.590Z,7.38
2023-02-02T22:42:56.954Z,9.48
2023-02-02T22:45:24.043Z,5.47
2023-02-02T22:47:50.991Z,6.15
2023-02-02T22:50:19.928Z,8.30
2023-02-02T22:52:46.419Z,7.43
2023-02-02T22:55:14.452Z,8.00
2023-02-02T22:57:41.407Z,11.68
2023-02-02T23:00:12.712Z,14.65
2023-02-02T23:02:40.361Z,11.15
2023-02-02T23:05:08.957Z,11.63
2023-02-02T23:07:35.642Z,9.15
2023-02-02T23:10:02.632Z,6.50
2023-02-02T23:12:29.117Z,13.23
2023-02-02T23:14:56.176Z,9.15
2023-02-02T23:17:22.585Z,9.30
2023-02-02T23:19:48.999Z,9.05
2023-02-02T23:22:15.436Z,9.82
2023-02-02T23:24:41.916Z,12.75
2023-02-02T23:27:08.427Z,17.27
2023-02-02T23:29:34.835Z,11.82
2023-02-02T23:32:01.913Z,9.18
2023-02-02T23:34:28.357Z,13.15
2023-02-02T23:36:54.754Z,8.15
2023-02-02T23:39:21.217Z,12.85
2023-02-02T23:41:47.662Z,12.55
2023-02-02T23:44:14.069Z,11.32
2023-02-02T23:46:41.674Z,12.57
2023-02-02T23:49:08.251Z,8.48
2023-02-02T23:51:35.117Z,6.97
2023-02-02T23:54:02.044Z,7.30
2023-02-02T23:56:28.720Z,11.40
2023-02-02T23:58:55.114Z,8.90
